createdAt,value
2018-04-16T00:01:50.453Z,2.90
2018-04-16T00:04:18.711Z,2.90
2018-04-16T00:06:46.950Z,3.00
2018-04-16T00:09:15.191Z,2.83
2018-04-16T00:11:43.781Z,2.70
2018-04-16T00:14:12.024Z,2.40
2018-04-16T00:16:40.262Z,2.83
2018-04-16T00:19:08.528Z,2.73
2018-04-16T00:21:36.767Z,2.73
2018-04-16T00:24:05.007Z,2.67
2018-04-16T00:26:33.271Z,2.70
2018-04-16T00:29:01.521Z,2.40
2018-04-16T00:31:35.862Z,2.90
2018-04-16T00:34:09.675Z,2.93
2018-04-16T00:36:43.635Z,2.70
2018-04-16T00:39:17.439Z,3.13
2018-04-16T00:41:51.473Z,2.77
2018-04-16T00:44:25.326Z,3.37
2018-04-16T00:46:59.513Z,3.10
2018-04-16T00:49:33.335Z,3.13
2018-04-16T00:52:07.155Z,2.93
2018-04-16T00:54:41.019Z,3.27
2018-04-16T00:57:14.859Z,3.60
2018-04-16T00:59:49.631Z,3.50
2018-04-16T01:02:23.865Z,3.10
2018-04-16T01:04:57.771Z,3.10
2018-04-16T01:07:31.587Z,3.60
2018-04-16T01:10:05.523Z,3.90
2018-04-16T01:12:39.495Z,3.20
2018-04-16T01:15:13.315Z,3.57
2018-04-16T01:17:47.387Z,3.10
2018-04-16T01:20:30.504Z,3.60
2018-04-16T01:23:04.299Z,4.00
2018-04-16T01:25:38.863Z,3.47
2018-04-16T01:28:12.815Z,4.00
2018-04-16T01:30:46.612Z,3.20
2018-04-16T01:33:20.903Z,3.30
2018-04-16T01:35:54.890Z,3.43
2018-04-16T01:38:28.738Z,3.67
2018-04-16T01:41:02.667Z,3.87
2018-04-16T01:43:36.987Z,4.20
2018-04-16T01:46:10.825Z,3.87
2018-04-16T01:48:44.836Z,3.37
2018-04-16T01:51:18.631Z,3.73
2018-04-16T01:53:53.414Z,2.83
2018-04-16T01:56:27.399Z,3.03
2018-04-16T01:59:01.401Z,3.60
2018-04-16T02:01:35.535Z,3.83
2018-04-16T02:04:09.658Z,3.40
2018-04-16T02:06:43.499Z,3.00
2018-04-16T02:09:18.135Z,2.83
2018-04-16T02:11:51.931Z,2.43
2018-04-16T02:14:25.895Z,2.53
2018-04-16T02:16:59.774Z,2.60
2018-04-16T02:19:34.952Z,2.80
2018-04-16T02:22:08.881Z,2.60
2018-04-16T02:24:42.846Z,2.50
2018-04-16T02:27:16.666Z,2.30
2018-04-16T02:29:50.487Z,2.70
2018-04-16T02:32:24.283Z,2.50
2018-04-16T02:34:58.413Z,2.50
2018-04-16T02:37:32.400Z,2.23
2018-04-16T02:40:06.686Z,2.20
2018-04-16T02:42:40.608Z,2.30
2018-04-16T02:45:14.607Z,2.20
2018-04-16T02:47:49.319Z,2.50
2018-04-16T02:50:23.699Z,2.30
2018-04-16T02:52:57.631Z,2.30
2018-04-16T02:55:31.507Z,2.67
2018-04-16T02:58:05.419Z,2.30
2018-04-16T03:00:39.291Z,2.30
2018-04-16T03:03:14.033Z,2.40
2018-04-16T03:05:48.087Z,2.13
2018-04-16T03:08:21.993Z,2.13
2018-04-16T03:10:55.963Z,2.47
2018-04-16T03:13:29.803Z,2.37
2018-04-16T03:16:03.803Z,2.40
2018-04-16T03:18:37.631Z,2.50
2018-04-16T03:21:11.840Z,2.60
2018-04-16T03:23:45.755Z,2.67
2018-04-16T03:26:19.607Z,2.20
2018-04-16T03:28:53.428Z,2.50
2018-04-16T03:31:27.359Z,2.03
2018-04-16T03:34:01.188Z,3.30
2018-04-16T03:36:35.605Z,2.67
2018-04-16T03:39:09.496Z,2.40
2018-04-16T03:41:43.368Z,2.40
2018-04-16T03:44:17.268Z,2.00
2018-04-16T03:46:51.200Z,2.30
2018-04-16T03:49:25.816Z,2.50
2018-04-16T03:52:14.043Z,2.30
2018-04-16T03:57:48.690Z,2.80
2018-04-16T04:00:16.925Z,2.80
2018-04-16T04:02:45.164Z,2.40
2018-04-16T04:05:13.774Z,3.27
2018-04-16T04:07:42.023Z,2.60
2018-04-16T04:10:10.264Z,2.30
2018-04-16T04:12:38.932Z,4.00
2018-04-16T04:15:07.177Z,2.47
2018-04-16T04:17:35.410Z,2.83
2018-04-16T04:20:03.691Z,2.53
2018-04-16T04:22:43.633Z,3.00
2018-04-16T04:25:23.560Z,3.07
2018-04-16T04:28:03.575Z,3.10
2018-04-16T04:30:37.523Z,2.80
2018-04-16T04:33:05.761Z,2.80
2018-04-16T04:35:34.002Z,2.40
2018-04-16T04:38:02.273Z,3.23
2018-04-16T04:40:30.567Z,3.43
2018-04-16T04:42:58.754Z,3.23
2018-04-16T04:45:27.783Z,3.60
2018-04-16T04:47:56.032Z,4.40
2018-04-16T04:50:24.274Z,4.17
2018-04-16T04:52:52.931Z,4.47
2018-04-16T04:55:21.176Z,4.30
2018-04-16T04:57:50.534Z,4.13
2018-04-16T05:00:18.790Z,4.53
2018-04-16T05:02:47.027Z,4.70
2018-04-16T05:05:16.627Z,5.30
2018-04-16T05:07:45.659Z,5.30
2018-04-16T05:10:13.899Z,5.03
2018-04-16T05:12:42.140Z,6.20
2018-04-16T05:15:10.719Z,5.50
2018-04-16T05:17:38.963Z,5.90
2018-04-16T05:20:07.207Z,5.60
2018-04-16T05:22:35.593Z,4.83
2018-04-16T05:25:04.016Z,4.70
2018-04-16T05:27:32.252Z,4.60
2018-04-16T05:30:00.510Z,4.37
2018-04-16T05:32:28.778Z,3.70
2018-04-16T05:34:57.136Z,4.23
2018-04-16T05:37:25.607Z,3.83
2018-04-16T05:39:53.983Z,3.37
2018-04-16T05:42:22.215Z,4.50
2018-04-16T05:44:50.482Z,3.70
2018-04-16T05:47:19.491Z,4.80
2018-04-16T05:49:47.729Z,4.70
2018-04-16T05:52:15.984Z,4.80
2018-04-16T05:54:44.220Z,4.33
2018-04-16T05:57:13.231Z,4.53
2018-04-16T05:59:41.865Z,4.93
2018-04-16T06:02:10.102Z,4.87
2018-04-16T06:04:38.339Z,5.13
2018-04-16T06:07:07.564Z,5.10
2018-04-16T06:09:35.792Z,5.80
2018-04-16T06:12:04.039Z,12.33
2018-04-16T06:14:35.527Z,5.50
2018-04-16T06:17:04.033Z,5.90
2018-04-16T06:19:32.475Z,5.20
2018-04-16T06:22:00.812Z,5.37
2018-04-16T06:24:29.052Z,5.30
2018-04-16T06:26:57.487Z,5.30
2018-04-16T06:29:25.862Z,5.23
2018-04-16T06:31:54.163Z,5.77
2018-04-16T06:34:22.390Z,6.10
2018-04-16T06:36:51.457Z,4.47
2018-04-16T06:39:19.657Z,4.50
2018-04-16T06:41:48.656Z,5.03
2018-04-16T06:44:17.376Z,5.13
2018-04-16T06:46:45.615Z,5.67
2018-04-16T06:49:13.854Z,5.57
2018-04-16T06:51:42.115Z,5.70
2018-04-16T06:54:10.351Z,5.00
2018-04-16T06:56:38.642Z,5.87
2018-04-16T06:59:06.930Z,5.27
2018-04-16T07:01:35.159Z,5.07
2018-04-16T07:04:03.443Z,5.07
2018-04-16T07:06:31.741Z,4.47
2018-04-16T07:09:00.277Z,5.33
2018-04-16T07:11:28.516Z,4.53
2018-04-16T07:13:56.780Z,4.40
2018-04-16T07:16:25.033Z,5.73
2018-04-16T07:18:54.038Z,6.03
2018-04-16T07:21:22.299Z,6.60
2018-04-16T07:23:50.544Z,5.90
2018-04-16T07:26:18.787Z,5.57
2018-04-16T07:28:47.293Z,5.80
2018-04-16T07:31:15.507Z,6.27
2018-04-16T07:33:43.746Z,5.20
2018-04-16T07:36:12.007Z,5.10
2018-04-16T07:38:40.248Z,4.00
2018-04-16T07:41:08.490Z,4.30
2018-04-16T07:43:36.752Z,4.17
2018-04-16T07:46:04.998Z,3.33
2018-04-16T07:48:33.321Z,2.77
2018-04-16T07:51:02.214Z,3.43
2018-04-16T07:53:30.446Z,3.27
2018-04-16T07:55:58.685Z,3.23
2018-04-16T07:58:26.967Z,2.90
2018-04-16T08:00:55.200Z,3.10
2018-04-16T08:03:23.448Z,3.40
2018-04-16T08:05:51.705Z,2.80
2018-04-16T08:08:19.944Z,3.57
2018-04-16T08:10:48.500Z,2.73
2018-04-16T08:13:17.171Z,3.00
2018-04-16T08:15:45.559Z,2.60
2018-04-16T08:18:13.793Z,2.17
2018-04-16T08:20:42.441Z,2.30
2018-04-16T08:23:10.675Z,2.43
2018-04-16T08:25:38.908Z,2.60
2018-04-16T08:28:07.173Z,2.50
2018-04-16T08:30:35.403Z,2.60
2018-04-16T08:33:03.911Z,2.57
2018-04-16T08:35:32.211Z,3.07
2018-04-16T08:38:00.460Z,2.40
2018-04-16T08:40:28.700Z,2.50
2018-04-16T08:42:57.723Z,2.00
2018-04-16T08:45:26.029Z,2.30
2018-04-16T08:47:54.262Z,2.60
2018-04-16T08:50:22.527Z,2.13
2018-04-16T08:52:51.532Z,2.03
2018-04-16T08:55:19.770Z,2.40
2018-04-16T08:57:48.167Z,2.10
2018-04-16T09:00:16.412Z,2.10
2018-04-16T09:02:44.644Z,2.50
2018-04-16T09:05:12.915Z,2.33
2018-04-16T09:07:41.166Z,1.87
2018-04-16T09:10:10.230Z,2.00
2018-04-16T09:12:38.891Z,2.10
2018-04-16T09:15:07.139Z,2.07
2018-04-16T09:17:35.386Z,2.20
2018-04-16T09:20:03.709Z,1.87
2018-04-16T09:22:31.948Z,2.20
2018-04-16T09:25:00.234Z,2.17
2018-04-16T09:27:29.304Z,2.43
2018-04-16T09:29:57.513Z,2.20
2018-04-16T09:32:26.504Z,2.00
2018-04-16T09:34:55.536Z,2.00
2018-04-16T09:37:23.776Z,2.10
2018-04-16T09:39:52.021Z,1.80
2018-04-16T09:42:20.356Z,1.97
2018-04-16T09:44:48.604Z,2.07
2018-04-16T09:47:16.850Z,2.20
2018-04-16T09:49:45.120Z,2.10
2018-04-16T09:52:13.355Z,2.00
2018-04-16T09:54:41.600Z,2.13
2018-04-16T09:57:09.863Z,2.23
2018-04-16T09:59:38.103Z,2.20
2018-04-16T10:02:12.140Z,1.67
2018-04-16T10:04:40.387Z,1.67
2018-04-16T10:07:08.720Z,1.60
2018-04-16T10:09:36.983Z,1.93
2018-04-16T10:12:06.734Z,1.70
2018-04-16T10:14:35.094Z,1.50
2018-04-16T10:17:04.132Z,1.77
2018-04-16T10:19:32.365Z,1.50
2018-04-16T10:22:00.616Z,1.23
2018-04-16T10:24:29.107Z,1.73
2018-04-16T10:26:58.856Z,1.60
2018-04-16T10:29:27.097Z,1.57
2018-04-16T10:31:56.131Z,1.60
2018-04-16T10:34:24.497Z,1.63
2018-04-16T10:36:52.731Z,1.73
2018-04-16T10:39:21.003Z,1.60
2018-04-16T10:41:49.244Z,1.30
2018-04-16T10:44:17.480Z,1.40
2018-04-16T10:46:47.131Z,2.00
2018-04-16T10:49:15.374Z,1.90
2018-04-16T10:51:43.635Z,1.23
2018-04-16T10:54:11.898Z,1.43
2018-04-16T10:56:40.139Z,1.70
2018-04-16T10:59:08.378Z,1.47
2018-04-16T11:01:37.408Z,1.37
2018-04-16T11:04:05.649Z,1.30
2018-04-16T11:06:33.882Z,1.87
2018-04-16T11:09:02.851Z,1.40
2018-04-16T11:11:31.093Z,1.50
2018-04-16T11:13:59.334Z,1.60
2018-04-16T11:16:28.548Z,1.63
2018-04-16T11:18:56.783Z,1.20
2018-04-16T11:21:25.020Z,1.80
2018-04-16T11:23:54.176Z,1.50
2018-04-16T11:26:22.443Z,1.40
2018-04-16T11:28:50.780Z,1.70
2018-04-16T11:31:20.107Z,1.40
2018-04-16T11:33:48.350Z,1.47
2018-04-16T11:36:16.591Z,1.30
2018-04-16T11:38:44.847Z,1.90
2018-04-16T11:41:13.140Z,1.43
2018-04-16T11:43:41.516Z,1.53
2018-04-16T11:46:09.754Z,1.07
2018-04-16T11:48:38.008Z,1.07
2018-04-16T11:51:06.256Z,1.20
2018-04-16T11:53:34.563Z,1.37
2018-04-16T11:56:03.595Z,1.00
2018-04-16T11:58:31.839Z,1.20
2018-04-16T12:01:00.447Z,1.60
2018-04-16T12:03:28.683Z,1.17
2018-04-16T12:05:57.696Z,1.80
2018-04-16T12:08:26.715Z,1.20
2018-04-16T12:10:54.955Z,1.17
2018-04-16T12:13:23.207Z,1.20
2018-04-16T12:15:51.511Z,1.10
2018-04-16T12:18:20.816Z,1.40
2018-04-16T12:20:49.831Z,1.30
2018-04-16T12:23:18.100Z,1.60
2018-04-16T12:25:46.427Z,1.50
2018-04-16T12:28:14.654Z,1.33
2018-04-16T12:30:42.939Z,1.40
2018-04-16T12:33:11.160Z,0.90
2018-04-16T12:35:39.395Z,1.20
2018-04-16T12:38:07.735Z,1.50
2018-04-16T12:40:36.299Z,1.03
2018-04-16T12:43:04.529Z,1.80
2018-04-16T12:45:32.779Z,1.20
2018-04-16T12:48:01.078Z,1.10
2018-04-16T12:50:29.254Z,0.90
2018-04-16T12:52:57.563Z,1.20
2018-04-16T12:55:25.795Z,1.20
2018-04-16T12:57:54.054Z,1.10
2018-04-16T13:00:22.471Z,1.17
2018-04-16T13:02:50.723Z,1.10
2018-04-16T13:05:19.735Z,1.20
2018-04-16T13:07:48.005Z,1.33
2018-04-16T13:10:16.244Z,1.50
2018-04-16T13:12:45.328Z,1.10
2018-04-16T13:15:13.546Z,1.00
2018-04-16T13:17:41.783Z,1.30
2018-04-16T13:20:10.602Z,1.30
2018-04-16T13:22:39.323Z,1.37
2018-04-16T13:25:07.569Z,1.20
2018-04-16T13:27:35.807Z,1.00
2018-04-16T13:30:04.071Z,1.20
2018-04-16T13:32:32.334Z,1.10
2018-04-16T13:35:00.569Z,1.03
2018-04-16T13:37:29.586Z,1.30
2018-04-16T13:39:57.826Z,1.07
2018-04-16T13:42:26.074Z,1.30
2018-04-16T13:44:54.386Z,1.17
2018-04-16T13:47:23.391Z,1.37
2018-04-16T13:49:52.397Z,1.00
2018-04-16T13:52:20.651Z,1.20
2018-04-16T13:54:48.889Z,1.10
2018-04-16T13:57:17.174Z,1.10
2018-04-16T13:59:45.435Z,1.43
2018-04-16T14:02:13.671Z,1.00
2018-04-16T14:04:42.079Z,1.30
2018-04-16T14:07:10.761Z,1.40
2018-04-16T14:09:38.996Z,1.07
2018-04-16T14:12:07.350Z,1.50
2018-04-16T14:14:35.596Z,1.30
2018-04-16T14:17:03.835Z,1.27
2018-04-16T14:19:32.147Z,1.80
2018-04-16T14:22:00.545Z,0.90
2018-04-16T14:24:28.781Z,1.13
2018-04-16T14:26:57.017Z,1.23
2018-04-16T14:29:25.867Z,1.43
2018-04-16T14:31:54.098Z,1.20
2018-04-16T14:34:22.326Z,1.57
2018-04-16T14:36:50.583Z,1.60
2018-04-16T14:39:18.828Z,0.90
2018-04-16T14:41:47.122Z,1.20
2018-04-16T14:44:15.331Z,1.00
2018-04-16T14:46:43.567Z,1.20
2018-04-16T14:49:12.567Z,1.40
2018-04-16T14:51:41.902Z,1.30
2018-04-16T14:54:10.196Z,1.40
2018-04-16T14:56:38.439Z,1.20
2018-04-16T14:59:06.854Z,1.10
2018-04-16T15:01:35.091Z,1.10
2018-04-16T15:04:03.323Z,1.27
2018-04-16T15:06:31.590Z,1.10
2018-04-16T15:08:59.828Z,1.07
2018-04-16T15:11:28.067Z,1.47
2018-04-16T15:13:57.454Z,1.20
2018-04-16T15:16:25.694Z,1.03
2018-04-16T15:18:53.927Z,1.57
2018-04-16T15:21:22.191Z,1.40
2018-04-16T15:23:51.464Z,1.30
2018-04-16T15:26:19.894Z,1.10
2018-04-16T15:28:48.904Z,1.00
2018-04-16T15:31:17.142Z,1.30
2018-04-16T15:33:45.408Z,1.13
2018-04-16T15:36:13.743Z,1.00
2018-04-16T15:38:42.102Z,1.10
2018-04-16T15:41:11.091Z,1.27
2018-04-16T15:43:40.619Z,1.17
2018-04-16T15:46:08.926Z,1.30
2018-04-16T15:48:37.159Z,1.60
2018-04-16T15:51:05.887Z,1.43
2018-04-16T15:53:34.104Z,1.10
2018-04-16T15:56:04.282Z,1.23
2018-04-16T15:58:33.083Z,1.30
2018-04-16T16:01:01.315Z,1.30
2018-04-16T16:03:29.559Z,1.00
2018-04-16T16:05:58.926Z,1.17
2018-04-16T16:08:27.152Z,2.40
2018-04-16T16:10:56.171Z,1.00
2018-04-16T16:13:24.446Z,1.00
2018-04-16T16:15:52.851Z,0.87
2018-04-16T16:18:21.091Z,0.93
2018-04-16T16:20:49.410Z,1.23
2018-04-16T16:23:17.644Z,1.00
2018-04-16T16:25:45.878Z,1.10
2018-04-16T16:28:14.134Z,1.40
2018-04-16T16:30:42.372Z,1.00
2018-04-16T16:33:10.616Z,1.00
2018-04-16T16:35:39.695Z,1.30
2018-04-16T16:38:07.933Z,1.17
2018-04-16T16:40:36.175Z,0.90
2018-04-16T16:43:05.330Z,1.20
2018-04-16T16:45:33.575Z,1.27
2018-04-16T16:48:01.991Z,0.90
2018-04-16T16:50:30.264Z,1.20
2018-04-16T16:52:58.491Z,1.40
2018-04-16T16:55:26.732Z,1.10
2018-04-16T16:57:55.000Z,1.10
2018-04-16T17:00:23.239Z,1.30
2018-04-16T17:02:51.475Z,1.53
2018-04-16T17:05:20.673Z,1.10
2018-04-16T17:07:48.898Z,1.20
2018-04-16T17:10:17.135Z,1.40
2018-04-16T17:12:45.403Z,1.50
2018-04-16T17:15:14.403Z,1.40
2018-04-16T17:17:43.403Z,1.30
2018-04-16T17:20:11.794Z,1.50
2018-04-16T17:22:40.057Z,1.27
2018-04-16T17:25:09.347Z,1.03
2018-04-16T17:27:38.438Z,2.10
2018-04-16T17:30:06.689Z,1.20
2018-04-16T17:32:34.919Z,1.40
2018-04-16T17:35:03.183Z,1.50
2018-04-16T17:37:32.195Z,1.60
2018-04-16T17:40:00.553Z,1.37
2018-04-16T17:42:29.586Z,1.30
2018-04-16T17:44:57.819Z,1.30
2018-04-16T17:47:26.059Z,1.30
2018-04-16T17:49:54.380Z,1.30
2018-04-16T17:52:23.392Z,1.63
2018-04-16T17:54:51.635Z,1.60
2018-04-16T17:57:19.915Z,1.70
2018-04-16T17:59:48.161Z,1.53
2018-04-16T18:02:16.407Z,1.53
2018-04-16T18:04:44.654Z,1.63
2018-04-16T18:07:13.667Z,1.73
2018-04-16T18:09:41.907Z,1.80
2018-04-16T18:12:10.440Z,1.70
2018-04-16T18:14:38.728Z,1.60
2018-04-16T18:17:06.928Z,2.03
2018-04-16T18:19:35.195Z,1.80
2018-04-16T18:22:03.436Z,1.80
2018-04-16T18:24:31.679Z,2.10
2018-04-16T18:27:01.001Z,1.50
2018-04-16T18:29:29.200Z,2.20
2018-04-16T18:31:57.444Z,1.83
2018-04-16T18:34:26.867Z,2.30
2018-04-16T18:36:55.111Z,2.30
2018-04-16T18:39:24.110Z,2.33
2018-04-16T18:41:53.135Z,2.50
2018-04-16T18:44:21.375Z,2.20
2018-04-16T18:46:49.620Z,2.10
2018-04-16T18:49:18.286Z,2.20
2018-04-16T18:51:46.523Z,2.10
2018-04-16T18:54:14.767Z,1.73
2018-04-16T18:56:43.255Z,4.50
2018-04-16T18:59:13.015Z,2.20
2018-04-16T19:01:41.259Z,2.00
2018-04-16T19:04:09.519Z,2.10
2018-04-16T19:06:37.755Z,2.40
2018-04-16T19:09:05.991Z,2.40
2018-04-16T19:11:34.255Z,2.43
2018-04-16T19:14:02.495Z,2.50
2018-04-16T19:16:30.735Z,3.07
2018-04-16T19:18:59.067Z,2.70
2018-04-16T19:21:32.855Z,2.47
2018-04-16T19:24:01.120Z,3.00
2018-04-16T19:26:29.360Z,3.13
2018-04-16T19:28:58.147Z,2.97
2018-04-16T19:31:27.218Z,2.90
2018-04-16T19:34:01.125Z,3.90
2018-04-16T19:36:29.769Z,2.87
2018-04-16T19:38:58.011Z,3.30
2018-04-16T19:41:26.256Z,3.43
2018-04-16T19:43:54.511Z,3.40
2018-04-16T19:46:22.808Z,2.80
2018-04-16T19:49:06.863Z,3.20
2018-04-16T19:51:35.390Z,3.70
2018-04-16T19:54:03.678Z,3.50
2018-04-16T19:56:38.010Z,3.67
2018-04-16T19:59:06.245Z,3.37
2018-04-16T20:01:34.766Z,3.43
2018-04-16T20:04:03.023Z,2.87
2018-04-16T20:06:31.312Z,3.80
2018-04-16T20:08:59.546Z,3.40
2018-04-16T20:11:28.579Z,3.97
2018-04-16T20:13:56.820Z,2.93
2018-04-16T20:16:25.827Z,3.80
2018-04-16T20:18:54.334Z,2.97
2018-04-16T20:21:22.675Z,3.47
2018-04-16T20:23:51.679Z,3.50
2018-04-16T20:26:20.707Z,3.53
2018-04-16T20:28:48.943Z,3.63
2018-04-16T20:31:17.691Z,3.43
2018-04-16T20:33:45.963Z,3.80
2018-04-16T20:36:14.194Z,3.30
2018-04-16T20:38:42.451Z,3.30
2018-04-16T20:41:10.902Z,3.87
2018-04-16T20:43:39.134Z,4.37
2018-04-16T20:46:07.379Z,3.60
2018-04-16T20:48:35.643Z,4.23
2018-04-16T20:51:03.883Z,3.47
2018-04-16T20:53:32.120Z,3.23
2018-04-16T20:56:00.379Z,2.97
2018-04-16T20:58:28.649Z,3.30
2018-04-16T21:00:56.888Z,3.53
2018-04-16T21:03:25.471Z,3.43
2018-04-16T21:05:53.707Z,3.40
2018-04-16T21:08:22.145Z,3.20
2018-04-16T21:10:50.403Z,3.13
2018-04-16T21:13:18.647Z,3.20
2018-04-16T21:15:47.647Z,3.40
2018-04-16T21:18:16.672Z,4.10
2018-04-16T21:20:44.914Z,3.63
2018-04-16T21:23:13.142Z,3.97
2018-04-16T21:25:41.535Z,3.50
2018-04-16T21:28:09.782Z,3.60
2018-04-16T21:30:38.011Z,3.63
2018-04-16T21:33:06.495Z,3.70
2018-04-16T21:35:34.731Z,3.47
2018-04-16T21:38:02.967Z,3.33
2018-04-16T21:40:31.231Z,3.37
2018-04-16T21:43:00.243Z,4.10
2018-04-16T21:45:28.475Z,2.97
2018-04-16T21:47:56.790Z,3.40
2018-04-16T21:50:25.035Z,3.30
2018-04-16T21:52:55.427Z,3.70
2018-04-16T21:55:23.695Z,3.97
2018-04-16T21:57:51.936Z,3.20
2018-04-16T22:00:20.944Z,3.47
2018-04-16T22:02:49.207Z,3.63
2018-04-16T22:05:17.455Z,4.07
2018-04-16T22:07:45.691Z,3.70
2018-04-16T22:10:14.003Z,3.70
2018-04-16T22:12:42.243Z,4.00
2018-04-16T22:15:10.545Z,3.70
2018-04-16T22:17:38.801Z,3.87
2018-04-16T22:20:07.039Z,3.30
2018-04-16T22:22:36.038Z,3.87
2018-04-16T22:25:05.063Z,3.40
2018-04-16T22:27:33.305Z,3.83
2018-04-16T22:30:01.540Z,4.07
2018-04-16T22:32:30.199Z,3.80
2018-04-16T22:34:58.835Z,3.33
2018-04-16T22:37:27.835Z,3.80
2018-04-16T22:39:56.868Z,4.40
2018-04-16T22:42:25.116Z,3.70
2018-04-16T22:44:53.354Z,3.50
2018-04-16T22:47:22.003Z,3.73
2018-04-16T22:49:50.308Z,3.40
2018-04-16T22:52:18.546Z,3.40
2018-04-16T22:54:47.144Z,3.20
2018-04-16T22:57:15.388Z,3.90
2018-04-16T22:59:43.619Z,3.97
2018-04-16T23:02:11.888Z,3.57
2018-04-16T23:04:40.127Z,3.90
2018-04-16T23:07:08.434Z,3.53
2018-04-16T23:09:36.683Z,4.33
2018-04-16T23:12:04.930Z,3.60
2018-04-16T23:14:33.259Z,4.17
2018-04-16T23:17:01.939Z,4.03
2018-04-16T23:19:30.174Z,3.97
2018-04-16T23:21:58.518Z,3.70
2018-04-16T23:24:26.767Z,5.00
2018-04-16T23:26:55.151Z,3.80
2018-04-16T23:29:23.388Z,4.10
2018-04-16T23:31:51.919Z,3.47
2018-04-16T23:34:20.154Z,4.50
2018-04-16T23:36:48.926Z,4.50
2018-04-16T23:39:17.668Z,4.10
2018-04-16T23:41:45.916Z,3.40
2018-04-16T23:44:14.151Z,4.20
2018-04-16T23:46:43.183Z,3.67
2018-04-16T23:49:11.429Z,3.80
2018-04-16T23:51:40.703Z,3.30
2018-04-16T23:54:08.965Z,3.33
2018-04-16T23:56:37.203Z,3.33
2018-04-16T23:59:06.215Z,3.77
